Time,TemperatureC,DewpointC,PressurehPa,WindDirection,WindDirectionDegrees,WindSpeedKMH,WindSpeedGustKMH,Humidity,HourlyPrecipMM,Conditions,Clouds,dailyrainMM,SolarRadiationWatts/m^2,UVIndex,SoftwareType,DateUTC
2021-04-22 00:02:38,9,7,1014.4,NE,45,7.2,7.2,71.5,0.0,,,0.0,0,0,n/a,2021-04-21T22:02:38Z
2021-04-22 00:08:42,9,7.1,1014.6,NNE,22,10.9,16.5,72.1,0.0,,,0.0,2,0,n/a,2021-04-21T22:08:42Z
2021-04-22 00:14:38,8.9,7.1,1014.6,NE,35,13.5,16.6,72.3,0.0,,,0.0,0,0,n/a,2021-04-21T22:14:38Z
2021-04-22 00:17:43,8.8,7.2,1014.6,NNE,22,12.1,12.2,72.7,0.0,,,0.0,2,0,n/a,2021-04-21T22:17:43Z
2021-04-22 00:23:42,8.8,7.1,1014.9,NE,44,19.8,25.6,72.6,0.0,,,0.0,2,0,n/a,2021-04-21T22:23:42Z
2021-04-22 00:26:38,8.7,7,1014.9,NNE,22,10.2,10.3,72.7,0.0,,,0.0,0,0,n/a,2021-04-21T22:26:38Z
2021-04-22 00:32:43,8.6,7.3,1014.9,North,0,3.8,4,73.2,0.0,,,0.0,2,0,n/a,2021-04-21T22:32:43Z
2021-04-22 00:38:43,8.6,6.9,1014.9,NNE,28,22.6,25.1,72.9,0.0,,,0.0,2,0,n/a,2021-04-21T22:38:43Z
2021-04-22 00:44:42,8.5,6.6,1014.9,NNE,22,23.7,23.9,73.1,0.0,,,0.0,0,0,n/a,2021-04-21T22:44:42Z
2021-04-22 00:47:42,8.4,6.6,1014.9,NNE,22,16.6,20.8,72.8,0.0,,,0.0,2,0,n/a,2021-04-21T22:47:42Z
2021-04-22 00:53:38,8.3,6.8,1015.2,NE,36,11.4,16.1,72.8,0.0,,,0.0,2,0,n/a,2021-04-21T22:53:38Z
2021-04-22 00:59:42,8.2,6.7,1015.2,NNE,33,11.5,13.9,72.2,0.0,,,0.0,2,0,n/a,2021-04-21T22:59:42Z
2021-04-22 01:02:38,8.1,6.4,1015.2,NNE,22,12.4,12.5,71.8,0.0,,,0.0,0,0,n/a,2021-04-21T23:02:38Z
2021-04-22 01:08:42,8.1,6.4,1015.2,NNE,19,12.6,17.4,71.8,0.0,,,0.0,2,0,n/a,2021-04-21T23:08:42Z
2021-04-22 01:14:42,8.1,6.3,1015.2,NNE,25,16,20.4,71.7,0.0,,,0.0,2,0,n/a,2021-04-21T23:14:42Z
2021-04-22 01:17:42,8,6.4,1015.4,NE,45,14.3,15.1,72,0.0,,,0.0,0,0,n/a,2021-04-21T23:17:42Z
2021-04-22 01:23:38,7.9,6.5,1015.4,NNE,26,11.8,14.2,71.9,0.0,,,0.0,2,0,n/a,2021-04-21T23:23:38Z
2021-04-22 01:29:42,7.9,6.2,1015.4,NE,34,12.6,21.1,71.4,0.0,,,0.0,2,0,n/a,2021-04-21T23:29:42Z
2021-04-22 01:32:43,7.8,6.4,1015.7,NNE,27,8.5,10,71.5,0.0,,,0.0,2,0,n/a,2021-04-21T23:32:43Z
2021-04-22 01:38:43,7.8,6.3,1015.7,NE,55,7.6,9.7,70.8,0.0,,,0.0,2,0,n/a,2021-04-21T23:38:43Z
2021-04-22 01:44:42,7.7,6.2,1015.7,NNE,29,9.8,11.6,70.6,0.0,,,0.0,2,0,n/a,2021-04-21T23:44:42Z
2021-04-22 01:47:42,7.6,6.3,1015.7,North,0,1,1,70.4,0.0,,,0.0,2,0,n/a,2021-04-21T23:47:42Z
2021-04-22 01:53:43,7.6,6,1015.7,NNE,19,7.5,10.5,70.7,0.0,,,0.0,2,0,n/a,2021-04-21T23:53:43Z
2021-04-22 01:59:43,7.5,5.9,1016.0,North,11,11,11.5,70.2,0.0,,,0.0,2,0,n/a,2021-04-21T23:59:43Z
2021-04-22 02:02:42,7.3,6,1016.0,North,0,8.2,9.1,70.2,0.0,,,0.0,2,0,n/a,2021-04-22T00:02:42Z
2021-04-22 02:08:38,7.3,5.8,1016.0,North,11,8.8,13.2,69.8,0.0,,,0.0,2,0,n/a,2021-04-22T00:08:38Z
2021-04-22 02:14:42,7.2,5.7,1016.0,North,356,11.4,16.3,69.3,0.0,,,0.0,2,0,n/a,2021-04-22T00:14:42Z
2021-04-22 02:17:42,7.1,5.7,1016.0,NNE,22,5.7,6.4,69,0.0,,,0.0,0,0,n/a,2021-04-22T00:17:42Z
2021-04-22 02:23:42,7,5.6,1016.0,NE,49,2.3,3.3,68.9,0.0,,,0.0,2,0,n/a,2021-04-22T00:23:42Z
2021-04-22 02:29:38,6.9,5.4,1016.0,NE,43,7.5,11.7,68.5,0.0,,,0.0,2,0,n/a,2021-04-22T00:29:38Z
2021-04-22 02:32:43,6.9,5.4,1016.2,North,11,6.9,7.1,68.6,0.0,,,0.0,2,0,n/a,2021-04-22T00:32:43Z
2021-04-22 02:38:43,6.8,5.4,1016.2,North,6,4.6,7.5,68.7,0.0,,,0.0,0,0,n/a,2021-04-22T00:38:43Z
2021-04-22 02:44:43,6.6,5.3,1016.2,ENE,67,0,0,68.5,0.0,,,0.0,2,0,n/a,2021-04-22T00:44:43Z
2021-04-22 02:53:38,6.3,5,1016.5,NE,53,5.9,6.7,68.5,0.0,,,0.0,0,0,n/a,2021-04-22T00:53:38Z
2021-04-22 02:59:38,6,4.9,1016.5,NE,46,4.5,8.4,68.5,0.0,,,0.0,0,0,n/a,2021-04-22T00:59:38Z
2021-04-22 03:08:42,5.6,4.7,1016.5,NE,56,1.8,3,68.1,0.0,,,0.0,2,0,n/a,2021-04-22T01:08:42Z
2021-04-22 03:14:42,5.4,4.3,1016.5,ENE,61,3.2,5,67.8,0.0,,,0.0,2,0,n/a,2021-04-22T01:14:42Z
2021-04-22 03:17:38,5.1,4.4,1016.7,North,0,10.4,10.4,68.3,0.0,,,0.0,2,0,n/a,2021-04-22T01:17:38Z
2021-04-22 03:23:43,5.1,4.2,1017.0,NNE,33,5.5,7.9,68.3,0.0,,,0.0,0,0,n/a,2021-04-22T01:23:43Z
2021-04-22 03:29:38,4.9,3.9,1017.0,NE,45,5.1,5.2,68.4,0.0,,,0.0,0,0,n/a,2021-04-22T01:29:38Z
2021-04-22 03:32:42,4.8,3.8,1017.0,NE,45,4.6,4.6,68.4,0.0,,,0.0,2,0,n/a,2021-04-22T01:32:42Z
2021-04-22 03:38:42,4.2,3.9,1017.0,ENE,67,0,0,68.1,0.0,,,0.0,2,0,n/a,2021-04-22T01:38:42Z
2021-04-22 03:44:42,4.1,3.6,1017.3,NE,38,2.9,4.9,67.5,0.0,,,0.0,2,0,n/a,2021-04-22T01:44:42Z
2021-04-22 03:47:43,4.1,3.5,1017.0,ENE,67,2.1,2.5,67.7,0.0,,,0.0,2,0,n/a,2021-04-22T01:47:43Z
2021-04-22 03:53:43,3.7,3.3,1017.3,North,10,4.5,5.2,67.5,0.0,,,0.0,0,0,n/a,2021-04-22T01:53:43Z
2021-04-22 03:59:43,3.5,3.3,1017.3,ENE,57,1.1,2,67.9,0.0,,,0.0,2,0,n/a,2021-04-22T01:59:43Z
2021-04-22 04:02:38,3.6,3,1017.3,NNE,22,6.5,6.6,67.6,0.0,,,0.0,2,0,n/a,2021-04-22T02:02:38Z
2021-04-22 04:08:42,3.3,3.1,1017.5,NNE,18,5.8,8.5,67.8,0.0,,,0.0,2,0,n/a,2021-04-22T02:08:42Z
2021-04-22 04:14:42,3.2,3,1017.5,ENE,67,0,0,67.7,0.0,,,0.0,2,0,n/a,2021-04-22T02:14:42Z
2021-04-22 04:17:42,3.2,2.9,1017.5,North,0,3.3,3.5,67.6,0.0,,,0.0,2,0,n/a,2021-04-22T02:17:42Z
2021-04-22 04:23:38,2.9,2.8,1017.5,North,353,2.5,3.6,67.5,0.0,,,0.0,0,0,n/a,2021-04-22T02:23:38Z
2021-04-22 04:29:42,3.1,2.3,1017.5,NNE,22,10.9,11.2,67.2,0.0,,,0.0,2,0,n/a,2021-04-22T02:29:42Z
2021-04-22 04:32:43,2.8,2.4,1017.5,NE,41,2.2,2.5,68.1,0.0,,,0.0,2,0,n/a,2021-04-22T02:32:43Z
2021-04-22 04:38:42,2.8,2.4,1017.5,NNE,18,2.9,4.5,67.8,0.0,,,0.0,2,0,n/a,2021-04-22T02:38:42Z
2021-04-22 04:44:42,2.3,2.3,1017.8,NE,52,3.9,4,68.3,0.0,,,0.0,2,0,n/a,2021-04-22T02:44:42Z
2021-04-22 04:47:42,2,2.3,1017.5,NNE,22,1.6,2.5,68.5,0.0,,,0.0,2,0,n/a,2021-04-22T02:47:42Z
2021-04-22 04:53:42,2.4,2,1017.5,NE,44,1,2,67.9,0.0,,,0.0,2,0,n/a,2021-04-22T02:53:42Z
2021-04-22 04:59:42,2.2,2,1017.5,ENE,67,1,1.9,68.5,0.0,,,0.0,2,0,n/a,2021-04-22T02:59:42Z
2021-04-22 05:02:43,1.9,2.1,1017.5,North,0,2.3,2.5,68.9,0.0,,,0.0,2,0,n/a,2021-04-22T03:02:43Z
2021-04-22 05:05:42,2.1,1.9,1017.5,North,0,5.5,5.9,68.4,0.0,,,0.0,0,0,n/a,2021-04-22T03:05:42Z
2021-04-22 05:14:43,2.1,1.4,1017.8,North,10,2.9,6.5,67.5,0.0,,,0.0,0,0,n/a,2021-04-22T03:14:43Z
2021-04-22 05:23:42,1.6,1.1,1017.8,North,8,3,5.9,66.4,0.0,,,0.0,2,0,n/a,2021-04-22T03:23:42Z
2021-04-22 05:26:43,1.5,1.1,1017.8,NNE,22,0,0,66.4,0.0,,,0.0,2,0,n/a,2021-04-22T03:26:43Z
2021-04-22 05:32:42,1,1.4,1018.0,NNE,22,0,0,68.1,0.0,,,0.0,0,0,n/a,2021-04-22T03:32:42Z
2021-04-22 05:38:42,0.8,1.1,1018.0,NE,45,0.3,0.6,67.7,0.0,,,0.0,2,0,n/a,2021-04-22T03:38:42Z
2021-04-22 05:44:42,0.6,1.1,1018.0,NE,45,0,0,67.8,0.0,,,0.0,2,0,n/a,2021-04-22T03:44:42Z
2021-04-22 05:53:43,0.4,1,1018.0,NE,45,0,0,68.1,0.0,,,0.0,2,0,n/a,2021-04-22T03:53:43Z
2021-04-22 05:59:39,0.2,1.1,1018.0,NNW,337,1.9,3.8,68.9,0.0,,,0.0,4,0,n/a,2021-04-22T03:59:39Z
2021-04-22 06:02:42,-0.1,0.9,1018.6,NNE,22,0,0,68.6,0.0,,,0.0,8,0,n/a,2021-04-22T04:02:42Z
2021-04-22 06:08:42,0.4,0.7,1018.6,ESE,112,0.9,1.5,68.6,0.0,,,0.0,10,0,n/a,2021-04-22T04:08:42Z
2021-04-22 06:14:38,0.3,0.8,1018.6,NNE,22,0,0,68.7,0.0,,,0.0,14,0,n/a,2021-04-22T04:14:38Z
2021-04-22 06:17:42,0.2,0.8,1018.6,ENE,67,0,0,69.1,0.0,,,0.0,16,0,n/a,2021-04-22T04:17:42Z
2021-04-22 06:23:42,-0.1,0.7,1018.6,NE,40,2.4,3.9,69.3,0.0,,,0.0,22,0,n/a,2021-04-22T04:23:42Z
2021-04-22 06:29:42,0.4,0.8,1018.6,NNW,337,2.2,4.1,70.2,0.0,,,0.0,28,0,n/a,2021-04-22T04:29:42Z
2021-04-22 06:32:43,0.3,0.8,1018.6,ENE,67,1.1,1.2,70,0.0,,,0.0,30,0,n/a,2021-04-22T04:32:43Z
2021-04-22 06:38:43,0.4,0.8,1018.6,ENE,57,1.9,5.8,70.7,0.0,,,0.0,98,0,n/a,2021-04-22T04:38:43Z
2021-04-22 06:41:42,0.8,1,1018.8,NNE,22,3.8,3.9,71.2,0.0,,,0.0,130,0,n/a,2021-04-22T04:41:42Z
2021-04-22 06:47:42,1.1,1.4,1018.8,North,0,4.5,4.5,71.1,0.0,,,0.0,158,0,n/a,2021-04-22T04:47:42Z
2021-04-22 06:50:43,1.2,1.7,1018.8,NNE,22,2.5,3.3,70.4,0.0,,,0.0,168,0,n/a,2021-04-22T04:50:43Z
2021-04-22 06:59:43,1.5,1.8,1019.1,NNE,22,0.1,0.5,67.2,0.0,,,0.0,188,0.1,n/a,2021-04-22T04:59:43Z
2021-04-22 07:02:42,1.7,1.9,1019.1,NNW,337,0,0,66.2,0.0,,,0.0,216,0.1,n/a,2021-04-22T05:02:42Z
2021-04-22 07:05:42,1.9,2.1,1019.1,NNW,347,4,4.3,66,0.0,,,0.0,228,0.1,n/a,2021-04-22T05:05:42Z
2021-04-22 07:14:42,2.3,2.2,1019.1,NNE,15,2.7,4.7,62.9,0.0,,,0.0,260,0.2,n/a,2021-04-22T05:14:42Z
2021-04-22 07:17:42,2.3,2.4,1019.1,NNE,22,3.1,3.3,61.2,0.0,,,0.0,268,0.2,n/a,2021-04-22T05:17:42Z
2021-04-22 07:23:42,2.5,2.3,1019.1,NNE,13,3.1,5.9,59.8,0.0,,,0.0,274,0.2,n/a,2021-04-22T05:23:42Z
2021-04-22 07:26:43,2.6,2.7,1019.4,NNE,22,5.7,6.1,59.9,0.0,,,0.0,284,0.2,n/a,2021-04-22T05:26:43Z
2021-04-22 07:32:43,3.1,2.8,1019.4,North,10,4.8,5,57.6,0.0,,,0.0,210,0.2,n/a,2021-04-22T05:32:43Z
2021-04-22 07:38:39,2.7,2.4,1019.4,NNE,22,5.3,5.9,55.3,0.0,,,0.0,322,0.2,n/a,2021-04-22T05:38:39Z
2021-04-22 07:44:43,3.2,2.7,1019.4,NE,36,3,4.2,55.6,0.0,,,0.0,276,0.3,n/a,2021-04-22T05:44:43Z
2021-04-22 07:47:38,3.6,2.8,1019.4,NNE,22,0,0,55.6,0.0,,,0.0,148,0.3,n/a,2021-04-22T05:47:38Z
2021-04-22 07:53:42,5.3,2.9,1019.6,NE,45,2.3,2.6,54.9,0.0,,,0.0,262,0.3,n/a,2021-04-22T05:53:42Z
2021-04-22 07:59:43,4.6,2.5,1019.6,East,90,5.1,10.7,52.5,0.0,,,0.0,170,0.3,n/a,2021-04-22T05:59:43Z
2021-04-22 08:02:42,5,2,1019.6,NNE,22,4.8,7,53.2,0.0,,,0.0,128,0.4,n/a,2021-04-22T06:02:42Z
2021-04-22 08:08:42,4.1,2.5,1019.6,NE,38,4.4,6,55.7,0.0,,,0.0,128,0.4,n/a,2021-04-22T06:08:42Z
2021-04-22 08:11:39,5.1,2.7,1019.6,NNW,337,1.9,1.9,56.9,0.0,,,0.0,116,0.4,n/a,2021-04-22T06:11:39Z
2021-04-22 08:23:42,4,2.5,1019.6,NNE,31,4.1,5.2,55.1,0.0,,,0.0,222,0.4,n/a,2021-04-22T06:23:42Z
2021-04-22 08:32:42,4.2,2.4,1019.9,ENE,67,2.9,3.3,56.4,0.0,,,0.0,210,0.4,n/a,2021-04-22T06:32:42Z
2021-04-22 08:38:39,5.1,2.5,1019.9,ENE,67,0.6,1.9,56.5,0.0,,,0.0,248,0.5,n/a,2021-04-22T06:38:39Z
2021-04-22 08:44:43,4.7,2.7,1019.9,NE,55,6.2,8.4,55.3,0.0,,,0.0,280,0.5,n/a,2021-04-22T06:44:43Z
2021-04-22 08:47:42,4.7,2.4,1019.9,NE,38,2.9,3.3,53,0.0,,,0.0,374,0.6,n/a,2021-04-22T06:47:42Z
2021-04-22 08:53:42,4.7,2.8,1020.1,NE,41,5.4,10.5,53.7,0.0,,,0.0,464,0.6,n/a,2021-04-22T06:53:42Z
2021-04-22 08:59:38,4.7,2.8,1020.1,NNE,22,8.7,13.8,53.8,0.0,,,0.0,240,0.6,n/a,2021-04-22T06:59:38Z
2021-04-22 09:02:42,4.9,2.8,1020.1,NNE,22,4.9,5.2,54.4,0.0,,,0.0,228,0.6,n/a,2021-04-22T07:02:42Z
2021-04-22 09:08:42,4.8,2.2,1020.1,North,10,12.1,12.7,52.7,0.0,,,0.0,90,0.7,n/a,2021-04-22T07:08:42Z
2021-04-22 09:14:42,5.1,2.6,1020.1,NE,37,4.6,6.3,54.1,0.0,,,0.0,354,0.7,n/a,2021-04-22T07:14:42Z
2021-04-22 09:17:43,4.9,2.1,1020.1,North,11,10.4,10.4,51.7,0.0,,,0.0,410,0.9,n/a,2021-04-22T07:17:43Z
2021-04-22 09:23:39,4.9,2.2,1020.1,NNE,22,10.2,12.9,53.2,0.0,,,0.0,394,0.8,n/a,2021-04-22T07:23:39Z
2021-04-22 09:26:42,5.5,2.8,1020.1,NNW,337,6.3,7.2,55,0.0,,,0.0,358,0.8,n/a,2021-04-22T07:26:42Z
2021-04-22 09:38:42,5.5,2.4,1020.1,NNW,337,3.7,6.8,52.8,0.0,,,0.0,332,0.8,n/a,2021-04-22T07:38:42Z
2021-04-22 09:41:42,5.4,2.5,1020.1,NNE,22,11,13.8,53.1,0.0,,,0.0,248,1,n/a,2021-04-22T07:41:42Z
2021-04-22 09:53:38,5.8,2.3,1020.1,NNE,20,6.7,10.8,53.2,0.0,,,0.0,330,0.9,n/a,2021-04-22T07:53:38Z
2021-04-22 09:59:42,6.5,2.8,1020.4,ESE,106,2.5,5.3,53,0.0,,,0.0,326,0.9,n/a,2021-04-22T07:59:42Z
2021-04-22 10:02:43,6.4,3.1,1020.1,NNW,337,4.4,4.7,52.7,0.0,,,0.0,102,0.9,n/a,2021-04-22T08:02:43Z
2021-04-22 10:08:42,6.6,3.3,1020.1,NNE,28,4.6,6.6,52,0.0,,,0.0,260,1.2,n/a,2021-04-22T08:08:42Z
2021-04-22 10:14:42,7.2,3.5,1020.1,East,79,6.7,12.2,52.8,0.0,,,0.0,452,1.1,n/a,2021-04-22T08:14:42Z
2021-04-22 10:20:42,7.4,3.3,1020.1,WNW,292,0,0,50.6,0.0,,,0.0,274,1.2,n/a,2021-04-22T08:20:42Z
2021-04-22 10:29:43,7,2.7,1020.1,NE,48,3.7,5.6,49.4,0.0,,,0.0,614,1.7,n/a,2021-04-22T08:29:43Z
2021-04-22 10:32:42,6.8,2.7,1020.1,North,0,3.8,4.6,50.6,0.0,,,0.0,606,1.7,n/a,2021-04-22T08:32:42Z
2021-04-22 10:38:42,7.1,2.5,1020.1,North,353,8.9,11.8,49.9,0.0,,,0.0,636,1.8,n/a,2021-04-22T08:38:42Z
2021-04-22 10:44:38,7.6,2.7,1020.1,NNW,328,4.8,5.8,50.2,0.0,,,0.0,660,1.9,n/a,2021-04-22T08:44:38Z